25 Jun 2018 19:36 UTC 2018176+19:36 UTC

Overview Datums Bench Marks Data Query Site Visit Daily QC Messages Attributes

042: Nueces Delta 2

27° 53' 19" N   97° 34' 10" W
NUDE2
The Coastal Bend Bays & Estuaries Program Coastal Bend Bays and Estuaries Program

Station Information

Nueces Delta 2
Nueces Delta 2
more pictures
 
Station Name:Nueces Delta 2
DNR ID:042
Location:27° 53' 19" N, 97° 34' 10" W

Water Level Forecasts

Latest Observations

Series Metric English Marine Observed at
Water Temperature 30.6 °C 87.1 °F 87.1 °F Jun 25 14:24 CDT
00h07m ago
Salinity 12.200 psu 12.200 psu 12.200 psu Jun 25 14:24 CDT
00h07m ago

Maps

Nueces Delta 2
All Stations in Area
Entire Network
 

Recent Observations

Date/Time Water
Temp (°F)
Sal (psu)
Jun 25 14:00 CDT 86.5 12.300
Jun 25 13:00 CDT 85.5 12.600
Jun 25 12:00 CDT 84.2 12.400
Jun 25 11:00 CDT 82.9 12.700
Jun 25 10:00 CDT 82.0 12.800
Jun 25 09:00 CDT 81.3 12.700
Jun 25 08:00 CDT 81.1 12.700
Jun 25 07:00 CDT 81.5 12.700
Jun 25 06:00 CDT 81.9 12.700
Jun 25 05:00 CDT 82.2 12.700
Jun 25 04:00 CDT 82.6 12.800
Jun 25 03:00 CDT 82.9 12.600
Jun 25 02:00 CDT 83.7 12.600
Jun 25 01:00 CDT 84.2 12.700
Jun 25 00:00 CDT 84.9 12.800
Jun 24 23:00 CDT 85.5 12.700
Jun 24 22:00 CDT 86.2 12.700
Jun 24 21:00 CDT 87.1 12.800
Jun 24 20:00 CDT 88.2 12.800
Jun 24 19:00 CDT 89.2 12.500
Jun 24 18:00 CDT 90.1 12.500
Jun 24 17:00 CDT 90.5 12.400
Jun 24 16:00 CDT 90.1 12.400
Jun 24 15:00 CDT 88.7 12.500
Jun 24 14:00 CDT 87.4 12.500

Historical Data Availability